createdAt,value
2019-05-13T00:02:15.188Z,15.77
2019-05-13T00:04:45.577Z,16.03
2019-05-13T00:07:15.221Z,9.80
2019-05-13T00:09:44.857Z,9.77
2019-05-13T00:12:15.480Z,11.10
2019-05-13T00:14:45.116Z,12.37
2019-05-13T00:17:14.816Z,11.07
2019-05-13T00:19:44.453Z,17.53
2019-05-13T00:22:14.316Z,8.70
2019-05-13T00:24:44.410Z,13.40
2019-05-13T00:27:15.190Z,9.93
2019-05-13T00:29:45.086Z,9.17
2019-05-13T00:32:14.795Z,15.73
2019-05-13T00:34:44.670Z,13.80
2019-05-13T00:37:14.875Z,9.87
2019-05-13T00:39:45.666Z,10.93
2019-05-13T00:42:15.330Z,15.97
2019-05-13T00:44:45.189Z,16.47
2019-05-13T00:47:14.815Z,14.70
2019-05-13T00:49:44.496Z,13.27
2019-05-13T00:52:14.421Z,9.27
2019-05-13T00:54:44.341Z,8.77
2019-05-13T00:57:14.086Z,9.33
2019-05-13T00:59:44.368Z,16.50
2019-05-13T01:02:14.186Z,10.27
2019-05-13T01:04:44.264Z,12.53
2019-05-13T01:07:25.108Z,18.80
2019-05-13T01:09:45.353Z,10.73
2019-05-13T01:12:15.216Z,17.07
2019-05-13T01:14:44.908Z,13.17
2019-05-13T01:17:14.632Z,10.83
2019-05-13T01:19:45.704Z,11.97
2019-05-13T01:22:15.336Z,9.33
2019-05-13T01:24:44.975Z,15.23
2019-05-13T01:27:14.600Z,11.50
2019-05-13T01:29:44.562Z,9.67
2019-05-13T01:32:14.541Z,8.90
2019-05-13T01:34:45.275Z,10.73
2019-05-13T01:37:15.905Z,13.33
2019-05-13T01:39:45.592Z,10.17
2019-05-13T01:42:15.313Z,10.57
2019-05-13T01:44:45.010Z,14.53
2019-05-13T01:47:14.884Z,10.87
2019-05-13T01:49:44.513Z,9.73
2019-05-13T01:52:14.138Z,13.13
2019-05-13T01:54:44.355Z,16.57
2019-05-13T01:57:14.374Z,11.37
2019-05-13T01:59:44.098Z,9.83
2019-05-13T02:02:14.017Z,10.87
2019-05-13T02:04:44.030Z,16.63
2019-05-13T02:07:14.377Z,13.67
2019-05-13T02:09:44.489Z,12.20
2019-05-13T02:12:15.185Z,12.90
2019-05-13T02:14:44.820Z,19.53
2019-05-13T02:17:14.742Z,11.70
2019-05-13T02:19:44.377Z,10.63
2019-05-13T02:22:15.150Z,15.30
2019-05-13T02:24:44.921Z,14.93
2019-05-13T02:27:14.662Z,10.77
2019-05-13T02:29:44.279Z,10.57
2019-05-13T02:32:14.121Z,11.80
2019-05-13T02:34:44.101Z,11.43
2019-05-13T02:37:13.926Z,15.37
2019-05-13T02:39:43.629Z,14.90
2019-05-13T02:42:13.557Z,13.53
2019-05-13T02:44:44.258Z,10.17
2019-05-13T02:47:13.905Z,11.57
2019-05-13T02:49:43.609Z,11.80
2019-05-13T02:52:13.557Z,16.90
2019-05-13T02:54:43.391Z,14.70
2019-05-13T02:57:13.075Z,13.23
2019-05-13T02:59:42.687Z,16.57
2019-05-13T03:02:12.693Z,13.80
2019-05-13T03:04:43.349Z,10.17
2019-05-13T03:07:13.310Z,12.28
2019-05-13T03:09:43.075Z,14.47
2019-05-13T03:12:13.325Z,11.60
2019-05-13T03:14:48.012Z,13.90
2019-05-13T03:17:22.284Z,12.87
2019-05-13T03:19:52.927Z,12.67
2019-05-13T03:22:23.181Z,10.43
2019-05-13T03:24:52.803Z,12.67
2019-05-13T03:27:25.159Z,10.27
2019-05-13T03:29:53.933Z,10.93
2019-05-13T03:32:26.760Z,13.83
2019-05-13T03:34:56.499Z,8.87
2019-05-13T03:37:27.513Z,14.20
2019-05-13T03:39:59.263Z,11.43
2019-05-13T03:42:33.482Z,17.30
2019-05-13T03:45:04.099Z,11.37
2019-05-13T03:47:36.299Z,13.17
2019-05-13T03:50:07.501Z,10.93
2019-05-13T03:52:37.223Z,7.93
2019-05-13T03:55:08.691Z,15.47
2019-05-13T03:57:42.359Z,15.40
2019-05-13T04:00:13.154Z,12.37
2019-05-13T04:02:43.015Z,10.67
2019-05-13T04:05:13.634Z,9.77
2019-05-13T04:07:43.692Z,11.10
2019-05-13T04:10:14.836Z,10.87
2019-05-13T04:12:44.483Z,13.30
2019-05-13T04:15:14.748Z,9.97
2019-05-13T04:17:44.852Z,11.87
2019-05-13T04:20:14.817Z,14.73
2019-05-13T04:22:45.555Z,12.00
2019-05-13T04:25:15.445Z,12.60
2019-05-13T04:27:45.187Z,14.77
2019-05-13T04:30:15.108Z,11.40
2019-05-13T04:32:45.187Z,17.03
2019-05-13T04:35:14.965Z,12.13
2019-05-13T04:37:45.384Z,6.87
2019-05-13T04:40:15.277Z,9.37
2019-05-13T04:42:45.011Z,15.80
2019-05-13T04:45:14.865Z,15.77
2019-05-13T04:47:44.929Z,12.90
2019-05-13T04:50:14.746Z,16.47
2019-05-13T04:52:44.630Z,10.63
2019-05-13T04:55:14.465Z,12.47
2019-05-13T04:57:44.315Z,11.57
2019-05-13T05:00:14.713Z,9.23
2019-05-13T05:03:22.719Z,13.50
2019-05-13T05:06:04.266Z,15.47
2019-05-13T05:08:56.167Z,10.37
2019-05-13T05:12:02.633Z,10.63
2019-05-13T05:14:59.125Z,11.93
2019-05-13T05:17:54.445Z,13.77
2019-05-13T05:20:55.926Z,14.73
2019-05-13T05:24:02.890Z,13.23
2019-05-13T05:27:05.210Z,10.13
2019-05-13T05:30:11.337Z,9.50
2019-05-13T05:33:02.112Z,8.90
2019-05-13T05:35:52.287Z,12.27
2019-05-13T05:38:58.564Z,11.83
2019-05-13T05:41:31.758Z,10.10
2019-05-13T05:44:03.074Z,16.00
2019-05-13T05:46:33.903Z,11.43
2019-05-13T05:49:06.400Z,10.07
2019-05-13T05:51:38.196Z,13.47
2019-05-13T05:54:14.023Z,12.60
2019-05-13T05:56:41.775Z,14.98
2019-05-13T05:59:12.741Z,11.08
2019-05-13T06:01:45.016Z,10.53
2019-05-13T06:04:14.750Z,11.37
2019-05-13T06:06:46.337Z,11.85
2019-05-13T06:09:16.196Z,10.33
2019-05-13T06:11:47.038Z,12.30
2019-05-13T06:14:17.801Z,15.13
2019-05-13T06:16:48.594Z,7.62
2019-05-13T06:19:18.406Z,8.55
2019-05-13T06:21:51.193Z,15.63
2019-05-13T06:24:24.591Z,21.35
2019-05-13T06:26:52.114Z,9.45
2019-05-13T06:29:22.391Z,7.15
2019-05-13T06:31:52.230Z,11.60
2019-05-13T06:34:22.042Z,9.95
2019-05-13T06:36:52.427Z,12.30
2019-05-13T06:39:22.365Z,8.95
2019-05-13T06:41:52.064Z,9.90
2019-05-13T06:44:21.873Z,10.15
2019-05-13T06:46:51.815Z,9.60
2019-05-13T06:49:21.856Z,8.30
2019-05-13T06:51:52.695Z,12.10
2019-05-13T06:54:22.662Z,11.38
2019-05-13T06:56:52.503Z,9.30
2019-05-13T06:59:22.506Z,11.57
2019-05-13T07:01:52.345Z,12.43
2019-05-13T07:04:22.116Z,9.30
2019-05-13T07:07:07.623Z,12.33
2019-05-13T07:09:26.046Z,9.28
2019-05-13T07:11:57.008Z,9.58
2019-05-13T07:14:26.785Z,14.05
2019-05-13T07:16:56.441Z,8.40
2019-05-13T07:19:26.135Z,11.78
2019-05-13T07:21:57.139Z,10.00
2019-05-13T07:24:26.946Z,8.15
2019-05-13T07:26:56.600Z,10.35
2019-05-13T07:29:26.203Z,13.58
2019-05-13T07:31:55.884Z,8.40
2019-05-13T07:34:25.611Z,9.48
2019-05-13T07:36:55.484Z,8.03
2019-05-13T07:39:25.212Z,10.82
2019-05-13T07:41:55.032Z,13.03
2019-05-13T07:44:24.750Z,8.78
2019-05-13T07:46:54.505Z,9.13
2019-05-13T07:49:24.138Z,13.58
2019-05-13T07:51:53.773Z,10.63
2019-05-13T07:54:23.830Z,8.48
2019-05-13T07:56:53.523Z,10.28
2019-05-13T07:59:23.233Z,9.98
2019-05-13T08:01:53.038Z,9.08
2019-05-13T08:04:26.580Z,9.55
2019-05-13T08:06:54.203Z,7.33
2019-05-13T08:09:25.528Z,9.60
2019-05-13T08:12:05.228Z,13.15
2019-05-13T08:14:26.703Z,9.83
2019-05-13T08:16:56.441Z,11.08
2019-05-13T08:19:26.129Z,11.80
2019-05-13T08:21:56.245Z,9.43
2019-05-13T08:24:25.954Z,11.30
2019-05-13T08:26:55.706Z,8.28
2019-05-13T08:29:25.501Z,14.28
2019-05-13T08:31:55.347Z,10.98
2019-05-13T08:34:25.110Z,7.03
2019-05-13T08:36:54.847Z,11.73
2019-05-13T08:39:26.761Z,9.85
2019-05-13T08:42:11.710Z,12.23
2019-05-13T08:44:28.531Z,6.80
2019-05-13T08:47:02.625Z,10.03
2019-05-13T08:49:32.642Z,15.63
2019-05-13T08:52:02.699Z,9.03
2019-05-13T08:54:33.367Z,10.63
2019-05-13T08:57:03.417Z,8.33
2019-05-13T08:59:34.183Z,9.75
2019-05-13T09:02:05.145Z,11.85
2019-05-13T09:04:34.843Z,9.40
2019-05-13T09:07:04.992Z,8.40
2019-05-13T09:09:34.854Z,10.00
2019-05-13T09:12:05.013Z,8.88
2019-05-13T09:14:34.727Z,5.50
2019-05-13T09:17:05.072Z,12.55
2019-05-13T09:19:34.797Z,10.05
2019-05-13T09:22:05.094Z,8.43
2019-05-13T09:24:37.761Z,7.53
2019-05-13T09:27:06.177Z,6.58
2019-05-13T09:29:35.837Z,7.60
2019-05-13T09:32:05.720Z,4.45
2019-05-13T09:34:35.501Z,6.05
2019-05-13T09:37:05.316Z,8.18
2019-05-13T09:39:34.966Z,8.45
2019-05-13T09:42:05.327Z,4.55
2019-05-13T09:44:35.005Z,11.12
2019-05-13T09:47:04.964Z,5.40
2019-05-13T09:49:34.646Z,9.60
2019-05-13T09:52:05.697Z,10.60
2019-05-13T09:54:35.430Z,8.80
2019-05-13T09:57:05.174Z,15.58
2019-05-13T09:59:35.008Z,8.28
2019-05-13T10:02:04.997Z,8.03
2019-05-13T10:04:35.263Z,8.70
2019-05-13T10:07:05.197Z,11.22
2019-05-13T10:09:34.873Z,12.93
2019-05-13T10:12:05.113Z,8.00
2019-05-13T10:14:34.790Z,10.78
2019-05-13T10:17:06.640Z,8.65
2019-05-13T10:19:36.469Z,6.92
2019-05-13T10:22:06.269Z,11.48
2019-05-13T10:24:36.165Z,11.22
2019-05-13T10:27:07.094Z,7.20
2019-05-13T10:29:37.272Z,6.67
2019-05-13T10:32:07.187Z,7.22
2019-05-13T10:34:37.434Z,8.63
2019-05-13T10:37:08.387Z,9.20
2019-05-13T10:39:38.108Z,10.48
2019-05-13T10:42:07.846Z,7.42
2019-05-13T10:44:37.612Z,4.92
2019-05-13T10:47:07.366Z,6.33
2019-05-13T10:49:37.055Z,11.53
2019-05-13T10:52:06.686Z,7.58
2019-05-13T10:54:36.450Z,7.70
2019-05-13T10:57:07.318Z,6.15
2019-05-13T10:59:37.033Z,6.58
2019-05-13T11:02:13.624Z,5.80
2019-05-13T11:04:46.955Z,6.20
2019-05-13T11:07:17.638Z,5.85
2019-05-13T11:09:47.611Z,10.70
2019-05-13T11:12:17.652Z,9.03
2019-05-13T11:14:51.563Z,7.12
2019-05-13T11:17:23.218Z,7.55
2019-05-13T11:19:50.682Z,6.45
2019-05-13T11:22:22.474Z,12.00
2019-05-13T11:24:52.068Z,6.42
2019-05-13T11:27:23.466Z,5.85
2019-05-13T11:29:53.531Z,5.72
2019-05-13T11:32:23.458Z,10.23
2019-05-13T11:34:54.168Z,6.87
2019-05-13T11:37:23.902Z,6.70
2019-05-13T11:39:53.614Z,5.37
2019-05-13T11:42:23.421Z,8.35
2019-05-13T11:44:53.436Z,8.68
2019-05-13T11:47:23.233Z,5.58
2019-05-13T11:49:53.462Z,6.80
2019-05-13T11:52:23.221Z,7.30
2019-05-13T11:54:53.924Z,6.72
2019-05-13T11:57:24.019Z,4.92
2019-05-13T11:59:53.937Z,8.40
2019-05-13T12:02:23.645Z,6.58
2019-05-13T12:04:54.117Z,6.42
2019-05-13T12:07:23.886Z,10.05
2019-05-13T12:09:53.812Z,6.60
2019-05-13T12:12:30.532Z,5.67
2019-05-13T12:15:25.471Z,8.28
2019-05-13T12:17:26.711Z,4.40
2019-05-13T12:19:56.437Z,5.87
2019-05-13T12:22:26.224Z,4.95
2019-05-13T12:24:55.990Z,8.95
2019-05-13T12:27:26.232Z,5.75
2019-05-13T12:29:55.889Z,4.28
2019-05-13T12:32:25.625Z,4.92
2019-05-13T12:34:55.418Z,3.67
2019-05-13T12:37:25.334Z,6.37
2019-05-13T12:39:55.080Z,7.95
2019-05-13T12:42:25.045Z,6.20
2019-05-13T12:45:09.481Z,4.37
2019-05-13T12:47:26.197Z,4.87
2019-05-13T12:49:56.948Z,4.72
2019-05-13T12:52:26.665Z,3.87
2019-05-13T12:54:56.934Z,4.00
2019-05-13T12:57:26.723Z,3.25
2019-05-13T12:59:56.590Z,6.90
2019-05-13T13:02:26.319Z,4.62
2019-05-13T13:05:10.683Z,3.15
2019-05-13T13:07:27.612Z,3.95
2019-05-13T13:09:57.320Z,4.35
2019-05-13T13:12:34.606Z,3.00
2019-05-13T13:14:58.356Z,5.33
2019-05-13T13:17:28.078Z,1.60
2019-05-13T13:20:05.997Z,4.00
2019-05-13T13:22:31.433Z,4.47
2019-05-13T13:25:05.075Z,5.80
2019-05-13T13:27:59.863Z,7.85
2019-05-13T13:30:08.234Z,5.50
2019-05-13T13:32:35.313Z,5.70
2019-05-13T13:35:05.532Z,3.05
2019-05-13T13:37:35.357Z,4.40
2019-05-13T13:40:06.090Z,6.22
2019-05-13T13:42:35.870Z,5.67
2019-05-13T13:45:07.203Z,3.92
2019-05-13T13:47:36.868Z,7.25
2019-05-13T13:50:07.122Z,5.08
2019-05-13T13:52:36.813Z,3.90
2019-05-13T13:55:08.988Z,2.90
2019-05-13T13:57:38.485Z,4.50
2019-05-13T14:00:22.630Z,9.08
2019-05-13T14:02:43.103Z,7.20
2019-05-13T14:05:12.603Z,7.05
2019-05-13T14:07:42.690Z,5.05
2019-05-13T14:10:12.893Z,6.12
2019-05-13T14:12:42.580Z,3.62
2019-05-13T14:15:12.539Z,8.75
2019-05-13T14:17:42.215Z,5.62
2019-05-13T14:20:13.083Z,4.87
2019-05-13T14:22:42.741Z,8.65
2019-05-13T14:25:13.263Z,9.05
2019-05-13T14:27:43.273Z,14.40
2019-05-13T14:30:13.714Z,4.37
2019-05-13T14:32:43.427Z,5.75
2019-05-13T14:35:13.329Z,4.50
2019-05-13T14:37:45.076Z,12.43
2019-05-13T14:40:15.218Z,3.08
2019-05-13T14:42:45.026Z,5.10
2019-05-13T14:45:15.613Z,5.30
2019-05-13T14:47:45.681Z,5.97
2019-05-13T14:50:15.726Z,6.65
2019-05-13T14:52:46.446Z,4.60
2019-05-13T14:55:16.314Z,5.60
2019-05-13T14:57:46.020Z,4.47
2019-05-13T15:00:16.214Z,3.22
2019-05-13T15:02:45.967Z,4.45
2019-05-13T15:05:15.946Z,3.77
2019-05-13T15:07:45.766Z,5.03
2019-05-13T15:10:15.886Z,4.47
2019-05-13T15:12:45.513Z,4.50
2019-05-13T15:15:15.790Z,6.90
2019-05-13T15:17:45.501Z,4.50
2019-05-13T15:20:15.602Z,3.80
2019-05-13T15:22:45.558Z,5.67
2019-05-13T15:25:15.456Z,4.05
2019-05-13T15:27:45.227Z,5.55
2019-05-13T15:30:18.077Z,6.63
2019-05-13T15:32:46.665Z,3.55
2019-05-13T15:35:16.701Z,2.40
2019-05-13T15:37:46.653Z,3.00
2019-05-13T15:40:16.600Z,3.27
2019-05-13T15:42:46.836Z,3.83
2019-05-13T15:45:16.996Z,4.30
2019-05-13T15:47:46.786Z,4.45
2019-05-13T15:50:16.522Z,2.30
2019-05-13T15:52:46.245Z,2.77
2019-05-13T15:55:16.083Z,3.17
2019-05-13T15:57:46.009Z,8.70
2019-05-13T16:00:15.894Z,3.33
2019-05-13T16:02:46.582Z,2.05
2019-05-13T16:05:16.426Z,3.62
2019-05-13T16:07:46.261Z,3.55
2019-05-13T16:10:16.450Z,4.72
2019-05-13T16:12:46.128Z,2.52
2019-05-13T16:15:16.126Z,3.58
2019-05-13T16:17:45.821Z,6.17
2019-05-13T16:20:16.219Z,4.80
2019-05-13T16:22:45.913Z,3.58
2019-05-13T16:25:15.786Z,3.00
2019-05-13T16:27:45.446Z,3.40
2019-05-13T16:30:15.426Z,3.40
2019-05-13T16:32:48.084Z,4.60
2019-05-13T16:35:16.595Z,2.40
2019-05-13T16:37:46.365Z,3.77
2019-05-13T16:40:16.530Z,3.62
2019-05-13T16:42:46.449Z,3.27
2019-05-13T16:45:16.650Z,4.78
2019-05-13T16:47:57.141Z,4.20
2019-05-13T16:50:18.330Z,6.92
2019-05-13T16:52:48.106Z,4.40
2019-05-13T16:55:17.961Z,5.95
2019-05-13T16:57:48.655Z,4.15
2019-05-13T17:00:18.822Z,5.42
2019-05-13T17:02:48.598Z,5.05
2019-05-13T17:05:18.407Z,4.25
2019-05-13T17:07:48.313Z,3.42
2019-05-13T17:10:18.142Z,4.47
2019-05-13T17:12:47.918Z,4.05
2019-05-13T17:15:18.103Z,3.58
2019-05-13T17:17:47.974Z,3.02
2019-05-13T17:20:17.876Z,3.12
2019-05-13T17:22:47.597Z,5.55
2019-05-13T17:25:17.416Z,2.72
2019-05-13T17:27:48.273Z,5.92
2019-05-13T17:30:18.350Z,2.87
2019-05-13T17:32:51.446Z,2.42
2019-05-13T17:35:21.901Z,6.17
2019-05-13T17:37:52.266Z,4.70
2019-05-13T17:40:22.584Z,3.83
2019-05-13T17:42:52.472Z,4.47
2019-05-13T17:45:22.294Z,3.72
2019-05-13T17:47:52.186Z,6.42
2019-05-13T17:50:22.385Z,5.50
2019-05-13T17:52:53.077Z,2.83
2019-05-13T17:55:22.814Z,6.10
2019-05-13T17:57:52.627Z,4.42
2019-05-13T18:00:22.772Z,3.15
2019-05-13T18:02:52.508Z,2.65
2019-05-13T18:05:22.647Z,3.75
2019-05-13T18:07:53.679Z,3.22
2019-05-13T18:10:23.667Z,6.35
2019-05-13T18:12:53.892Z,3.72
2019-05-13T18:15:23.910Z,7.83
2019-05-13T18:17:54.982Z,3.12
2019-05-13T18:20:24.919Z,2.40
2019-05-13T18:22:54.864Z,2.10
2019-05-13T18:25:24.883Z,6.78
2019-05-13T18:27:54.712Z,4.53
2019-05-13T18:30:24.454Z,3.85
2019-05-13T18:32:54.176Z,4.17
2019-05-13T18:35:23.939Z,5.22
2019-05-13T18:37:53.908Z,6.37
2019-05-13T18:40:23.721Z,6.37
2019-05-13T18:42:53.488Z,4.85
2019-05-13T18:45:23.101Z,6.08
2019-05-13T18:47:52.756Z,10.75
2019-05-13T18:50:22.424Z,3.87
2019-05-13T18:52:52.549Z,5.55
2019-05-13T18:55:22.284Z,2.83
2019-05-13T18:57:51.985Z,4.40
2019-05-13T19:00:22.103Z,3.58
2019-05-13T19:02:51.866Z,5.75
2019-05-13T19:05:21.556Z,4.17
2019-05-13T19:07:51.413Z,2.50
2019-05-13T19:10:22.028Z,5.83
2019-05-13T19:12:51.984Z,7.40
2019-05-13T19:15:21.830Z,4.35
2019-05-13T19:17:52.081Z,6.30
2019-05-13T19:20:22.101Z,3.12
2019-05-13T19:22:51.953Z,5.62
2019-05-13T19:25:21.649Z,3.37
2019-05-13T19:27:51.807Z,4.12
2019-05-13T19:30:21.614Z,4.50
2019-05-13T19:32:52.064Z,5.50
2019-05-13T19:35:21.963Z,3.47
2019-05-13T19:37:51.968Z,5.92
2019-05-13T19:40:22.139Z,4.00
2019-05-13T19:42:51.876Z,3.62
2019-05-13T19:45:21.875Z,3.75
2019-05-13T19:47:51.989Z,4.33
2019-05-13T19:50:22.765Z,3.70
2019-05-13T19:52:52.473Z,6.97
2019-05-13T19:55:22.234Z,5.92
2019-05-13T19:57:51.874Z,5.40
2019-05-13T20:00:21.957Z,2.40
2019-05-13T20:02:51.600Z,4.05
2019-05-13T20:05:23.205Z,5.92
2019-05-13T20:07:53.008Z,3.22
2019-05-13T20:10:22.754Z,6.92
2019-05-13T20:12:52.417Z,3.27
2019-05-13T20:15:22.212Z,2.95
2019-05-13T20:17:52.166Z,5.65
2019-05-13T20:20:22.134Z,4.75
2019-05-13T20:22:51.886Z,5.15
2019-05-13T20:25:21.887Z,5.53
2019-05-13T20:27:51.684Z,6.75
2019-05-13T20:30:21.903Z,5.30
2019-05-13T20:32:51.970Z,6.30
2019-05-13T20:35:21.950Z,3.35
2019-05-13T20:37:52.141Z,4.62
2019-05-13T20:40:22.206Z,6.60
2019-05-13T20:42:53.022Z,5.12
2019-05-13T20:45:22.695Z,2.30
2019-05-13T20:47:52.306Z,3.40
2019-05-13T20:50:22.037Z,3.05
2019-05-13T20:52:51.819Z,6.20
2019-05-13T20:55:22.075Z,5.47
2019-05-13T20:57:53.061Z,2.22
2019-05-13T21:00:23.107Z,3.43
2019-05-13T21:02:53.103Z,4.72
2019-05-13T21:05:22.872Z,2.55
2019-05-13T21:07:52.648Z,4.70
2019-05-13T21:10:23.369Z,5.08
2019-05-13T21:12:53.045Z,14.90
2019-05-13T21:15:22.777Z,2.55
2019-05-13T21:17:52.462Z,4.40
2019-05-13T21:20:25.713Z,8.00
2019-05-13T21:22:53.758Z,5.50
2019-05-13T21:25:23.605Z,2.87
2019-05-13T21:27:53.341Z,3.17
2019-05-13T21:30:23.030Z,4.50
2019-05-13T21:32:52.768Z,3.40
2019-05-13T21:35:22.519Z,2.92
2019-05-13T21:37:52.504Z,2.20
2019-05-13T21:40:22.145Z,3.58
2019-05-13T21:42:52.701Z,2.12
2019-05-13T21:45:23.729Z,3.47
2019-05-13T21:47:53.490Z,3.02
2019-05-13T21:50:33.035Z,7.28
2019-05-13T21:52:54.809Z,2.40
2019-05-13T21:55:24.557Z,3.15
2019-05-13T21:57:54.284Z,3.95
2019-05-13T22:00:27.296Z,3.30
2019-05-13T22:02:58.557Z,6.25
2019-05-13T22:05:28.350Z,4.05
2019-05-13T22:07:58.165Z,5.10
2019-05-13T22:10:27.905Z,4.00
2019-05-13T22:12:57.642Z,3.05
2019-05-13T22:15:27.414Z,3.02
2019-05-13T22:17:57.110Z,1.97
2019-05-13T22:20:26.770Z,1.52
2019-05-13T22:22:56.526Z,5.70
2019-05-13T22:25:26.211Z,3.33
2019-05-13T22:27:55.907Z,3.60
2019-05-13T22:30:25.683Z,3.15
2019-05-13T22:32:55.443Z,3.02
2019-05-13T22:35:25.126Z,2.75
2019-05-13T22:37:54.822Z,5.25
2019-05-13T22:40:24.514Z,4.65
2019-05-13T22:42:56.739Z,3.43
2019-05-13T22:45:25.499Z,2.55
2019-05-13T22:47:55.184Z,4.10
2019-05-13T22:50:25.022Z,2.58
2019-05-13T22:52:54.822Z,3.62
2019-05-13T22:55:24.568Z,5.03
2019-05-13T22:57:54.330Z,2.02
2019-05-13T23:00:24.021Z,3.30
2019-05-13T23:02:53.765Z,3.80
2019-05-13T23:05:23.577Z,3.03
2019-05-13T23:07:53.260Z,4.70
2019-05-13T23:10:23.941Z,4.28
2019-05-13T23:12:53.589Z,3.02
2019-05-13T23:15:23.354Z,2.83
2019-05-13T23:17:53.031Z,5.13
2019-05-13T23:20:22.765Z,1.73
2019-05-13T23:22:52.437Z,4.00
2019-05-13T23:25:22.087Z,5.42
2019-05-13T23:27:52.821Z,4.30
2019-05-13T23:30:22.576Z,3.65
2019-05-13T23:32:52.244Z,3.92
2019-05-13T23:35:21.937Z,2.77
2019-05-13T23:37:52.878Z,4.40
2019-05-13T23:40:22.755Z,4.72
2019-05-13T23:42:53.416Z,5.20
2019-05-13T23:45:24.272Z,2.93
2019-05-13T23:47:54.008Z,3.85
2019-05-13T23:50:23.710Z,4.07
2019-05-13T23:52:53.442Z,6.43
2019-05-13T23:55:23.139Z,2.67
2019-05-13T23:57:52.825Z,3.27
